createdAt,value
2022-12-14T00:04:42.155Z,99.39
2022-12-14T00:09:47.148Z,98.66
2022-12-14T00:14:50.002Z,98.18
2022-12-14T00:19:52.775Z,98.33
2022-12-14T00:24:56.903Z,98.34
2022-12-14T00:30:00.741Z,98.35
2022-12-14T00:35:03.526Z,98.51
2022-12-14T00:40:09.787Z,98.60
2022-12-14T00:45:12.890Z,98.16
2022-12-14T00:50:15.991Z,98.81
2022-12-14T00:55:20.144Z,98.85
2022-12-14T01:00:22.891Z,99.12
2022-12-14T01:05:25.676Z,99.14
2022-12-14T01:10:30.111Z,99.19
2022-12-14T01:15:32.856Z,99.64
2022-12-14T01:20:35.599Z,99.01
2022-12-14T01:25:39.682Z,99.33
2022-12-14T01:30:42.403Z,99.40
2022-12-14T01:35:45.157Z,99.67
2022-12-14T01:40:49.252Z,99.24
2022-12-14T01:45:56.196Z,98.99
2022-12-14T01:50:58.974Z,98.67
2022-12-14T01:56:04.868Z,97.86
2022-12-14T02:01:07.729Z,98.62
2022-12-14T02:06:15.460Z,98.75
2022-12-14T02:11:30.734Z,98.98
2022-12-14T02:16:33.761Z,98.86
2022-12-14T02:21:53.316Z,99.66
2022-12-14T02:27:26.904Z,99.55
2022-12-14T02:32:57.723Z,100.00
2022-12-14T02:38:09.557Z,99.93
2022-12-14T02:43:17.356Z,100.00
2022-12-14T02:48:25.935Z,99.29
2022-12-14T02:53:35.502Z,98.86
2022-12-14T02:58:42.291Z,99.41
2022-12-14T03:03:46.972Z,98.52
2022-12-14T03:08:49.931Z,97.94
2022-12-14T03:13:57.295Z,99.63
2022-12-14T03:19:08.914Z,98.68
2022-12-14T03:24:14.724Z,99.50
2022-12-14T03:29:24.176Z,99.53
2022-12-14T03:34:32.359Z,100.00
2022-12-14T03:39:37.592Z,99.97
2022-12-14T03:44:49.097Z,99.39
2022-12-14T03:50:01.282Z,100.00
2022-12-14T03:55:12.624Z,99.55
2022-12-14T04:00:19.858Z,100.00
2022-12-14T04:05:28.400Z,100.00
2022-12-14T04:10:54.957Z,100.00
2022-12-14T04:16:18.576Z,99.86
2022-12-14T04:21:29.457Z,99.28
2022-12-14T04:26:38.371Z,99.31
2022-12-14T04:31:47.045Z,100.00
2022-12-14T04:36:56.955Z,100.00
2022-12-14T04:42:03.744Z,99.42
2022-12-14T04:47:10.700Z,97.99
2022-12-14T04:52:18.877Z,97.82
2022-12-14T04:57:26.975Z,98.26
2022-12-14T05:02:37.407Z,97.81
2022-12-14T05:07:49.009Z,98.18
2022-12-14T05:12:59.118Z,97.40
2022-12-14T05:18:03.798Z,98.88
2022-12-14T05:23:07.938Z,97.52
2022-12-14T05:28:11.348Z,97.94
2022-12-14T05:33:19.575Z,97.93
2022-12-14T05:38:24.192Z,96.92
2022-12-14T05:43:27.243Z,97.04
2022-12-14T05:48:31.129Z,98.07
2022-12-14T05:53:35.405Z,98.34
2022-12-14T05:58:38.569Z,99.07
2022-12-14T06:03:41.346Z,99.43
2022-12-14T06:08:47.277Z,99.23
2022-12-14T06:13:50.904Z,99.04
2022-12-14T06:18:55.199Z,97.11
2022-12-14T06:24:00.834Z,97.38
2022-12-14T06:29:04.465Z,98.91
2022-12-14T06:34:07.279Z,100.00
2022-12-14T06:39:14.437Z,100.00
2022-12-14T06:44:17.249Z,100.00
2022-12-14T06:49:20.125Z,100.00
2022-12-14T06:54:24.321Z,100.00
2022-12-14T06:59:27.231Z,100.00
2022-12-14T07:04:30.172Z,100.00
2022-12-14T07:09:34.321Z,100.00
2022-12-14T07:14:37.200Z,100.00
2022-12-14T07:19:39.966Z,99.73
2022-12-14T07:24:44.222Z,100.00
2022-12-14T07:29:47.055Z,100.00
2022-12-14T07:34:49.807Z,100.00
2022-12-14T07:39:53.954Z,100.00
2022-12-14T07:44:56.725Z,100.00
2022-12-14T07:49:59.443Z,100.00
2022-12-14T07:55:07.616Z,99.73
2022-12-14T08:00:11.712Z,100.00
2022-12-14T08:05:14.539Z,100.00
2022-12-14T08:10:18.858Z,99.77
2022-12-14T08:22:02.279Z,97.33
2022-12-14T08:32:32.470Z,98.22
2022-12-14T08:37:47.698Z,97.24
2022-12-14T08:42:52.320Z,93.72
2022-12-14T08:47:57.932Z,93.12
2022-12-14T08:53:02.726Z,93.10
2022-12-14T08:58:07.436Z,90.15
2022-12-14T09:03:11.798Z,94.90
2022-12-14T09:08:14.986Z,92.61
2022-12-14T09:13:19.433Z,91.67
2022-12-14T09:18:22.242Z,90.86
2022-12-14T09:23:43.690Z,89.21
2022-12-14T09:28:49.841Z,89.13
2022-12-14T09:33:56.898Z,88.88
2022-12-14T09:38:59.921Z,88.42
2022-12-14T09:44:18.662Z,85.50
2022-12-14T09:49:29.036Z,85.75
2022-12-14T09:54:35.996Z,86.77
2022-12-14T09:59:40.399Z,87.23
2022-12-14T10:04:55.462Z,86.54
2022-12-14T10:10:04.695Z,86.86
2022-12-14T10:15:21.916Z,87.00
2022-12-14T10:20:32.179Z,86.17
2022-12-14T10:25:40.096Z,86.52
2022-12-14T10:30:45.069Z,84.91
2022-12-14T10:35:52.773Z,83.95
2022-12-14T10:41:00.992Z,84.13
2022-12-14T10:46:18.019Z,83.19
2022-12-14T10:51:26.489Z,83.20
2022-12-14T10:56:32.818Z,82.34
2022-12-14T11:01:37.554Z,82.50
2022-12-14T11:06:41.171Z,82.76
2022-12-14T11:11:45.754Z,82.07
2022-12-14T11:16:56.774Z,81.85
2022-12-14T11:22:28.197Z,82.61
2022-12-14T11:27:31.361Z,81.39
2022-12-14T11:32:36.680Z,80.76
2022-12-14T11:37:39.588Z,80.97
2022-12-14T11:42:49.075Z,80.21
2022-12-14T11:48:11.757Z,79.75
2022-12-14T11:53:16.456Z,78.18
2022-12-14T11:58:23.252Z,79.30
2022-12-14T12:03:31.005Z,79.39
2022-12-14T12:08:38.131Z,79.30
2022-12-14T12:13:42.912Z,79.67
2022-12-14T12:18:50.746Z,81.08
2022-12-14T12:23:58.953Z,81.77
2022-12-14T12:29:03.937Z,80.76
2022-12-14T12:34:15.369Z,80.96
2022-12-14T12:39:24.824Z,80.78
2022-12-14T12:44:39.225Z,80.63
2022-12-14T12:49:43.520Z,79.85
2022-12-14T12:54:55.440Z,79.49
2022-12-14T13:00:00.341Z,79.66
2022-12-14T13:05:43.967Z,79.79
2022-12-14T13:10:34.441Z,79.28
2022-12-14T13:15:42.590Z,80.44
2022-12-14T13:20:46.762Z,80.94
2022-12-14T13:26:06.841Z,79.62
2022-12-14T13:31:20.320Z,79.26
2022-12-14T13:36:39.179Z,80.13
2022-12-14T13:41:52.561Z,81.18
2022-12-14T13:47:01.829Z,82.18
2022-12-14T13:52:07.023Z,82.22
2022-12-14T13:57:12.996Z,83.15
2022-12-14T14:02:40.426Z,84.14
2022-12-14T14:08:01.727Z,84.55
2022-12-14T14:13:43.896Z,83.08
2022-12-14T14:18:59.724Z,82.53
2022-12-14T14:24:20.983Z,82.91
2022-12-14T14:29:26.022Z,83.24
2022-12-14T14:34:46.872Z,83.04
2022-12-14T14:40:10.273Z,83.74
2022-12-14T14:45:31.724Z,84.75
2022-12-14T14:50:38.079Z,84.94
2022-12-14T14:56:01.018Z,84.74
2022-12-14T15:01:11.179Z,85.62
2022-12-14T15:06:16.755Z,86.44
2022-12-14T15:11:24.039Z,87.79
2022-12-14T15:16:32.191Z,88.20
2022-12-14T15:21:36.216Z,88.99
2022-12-14T15:26:40.458Z,89.60
2022-12-14T15:31:46.140Z,89.63
2022-12-14T15:36:50.084Z,89.85
2022-12-14T15:42:03.054Z,90.91
2022-12-14T15:47:05.956Z,91.42
2022-12-14T15:52:12.233Z,91.30
2022-12-14T15:57:20.248Z,90.75
2022-12-14T16:02:28.046Z,92.36
2022-12-14T16:07:38.459Z,92.79
2022-12-14T16:12:46.467Z,92.32
2022-12-14T16:17:54.815Z,92.83
2022-12-14T16:23:05.879Z,94.69
2022-12-14T16:28:28.679Z,94.90
2022-12-14T16:33:34.292Z,94.95
2022-12-14T16:38:42.758Z,93.66
2022-12-14T16:43:55.932Z,94.37
2022-12-14T16:49:21.498Z,95.73
2022-12-14T16:54:29.506Z,95.48
2022-12-14T16:59:41.924Z,95.21
2022-12-14T17:04:44.735Z,94.67
2022-12-14T17:09:47.519Z,96.08
2022-12-14T17:14:52.132Z,96.17
2022-12-14T17:19:56.575Z,96.66
2022-12-14T17:25:01.050Z,97.87
2022-12-14T17:30:06.109Z,97.55
2022-12-14T17:35:15.975Z,96.52
2022-12-14T17:40:19.260Z,96.90
2022-12-14T17:45:25.022Z,97.87
2022-12-14T17:50:27.948Z,99.85
2022-12-14T17:55:31.096Z,100.00
2022-12-14T18:00:52.719Z,100.00
2022-12-14T18:05:59.724Z,100.00
2022-12-14T18:11:11.875Z,98.71
2022-12-14T18:16:23.040Z,100.00
2022-12-14T18:21:30.466Z,100.00
2022-12-14T18:26:33.339Z,100.00
2022-12-14T18:31:38.881Z,100.00
2022-12-14T18:36:41.893Z,100.00
2022-12-14T18:41:44.755Z,100.00
2022-12-14T18:47:41.631Z,100.00
2022-12-14T18:53:22.356Z,100.00
2022-12-14T18:58:41.814Z,100.00
2022-12-14T19:04:02.482Z,100.00
2022-12-14T19:09:06.853Z,100.00
2022-12-14T19:14:11.792Z,100.00
2022-12-14T19:19:19.836Z,100.00
2022-12-14T19:24:26.716Z,100.00
2022-12-14T19:29:33.036Z,100.00
2022-12-14T19:34:39.016Z,100.00
2022-12-14T19:39:43.372Z,100.00
2022-12-14T19:45:15.370Z,100.00
2022-12-14T19:50:39.807Z,100.00
2022-12-14T19:56:09.472Z,100.00
2022-12-14T20:01:25.198Z,100.00
2022-12-14T20:06:34.268Z,100.00
2022-12-14T20:11:41.831Z,100.00
2022-12-14T20:16:44.891Z,100.00
2022-12-14T20:21:51.165Z,100.00
2022-12-14T20:26:55.582Z,100.00
2022-12-14T20:31:58.700Z,100.00
2022-12-14T20:37:01.748Z,100.00
2022-12-14T20:42:10.999Z,100.00
2022-12-14T20:53:45.364Z,96.18
2022-12-14T20:59:00.892Z,93.72
2022-12-14T21:04:04.207Z,95.02
2022-12-14T21:09:09.662Z,97.99
2022-12-14T21:14:14.643Z,98.89
2022-12-14T21:19:17.592Z,98.82
2022-12-14T21:24:52.730Z,100.00
2022-12-14T21:29:45.804Z,100.00
2022-12-14T21:34:48.939Z,100.00
2022-12-14T21:39:54.330Z,100.00
2022-12-14T21:44:59.844Z,100.00
2022-12-14T21:50:02.567Z,100.00
2022-12-14T21:55:06.220Z,98.72
2022-12-14T22:00:14.021Z,97.63
2022-12-14T22:05:19.388Z,97.22
2022-12-14T22:10:25.041Z,97.92
2022-12-14T22:15:29.485Z,98.17
2022-12-14T22:20:32.363Z,98.10
2022-12-14T22:25:35.214Z,98.71
2022-12-14T22:30:39.360Z,98.14
2022-12-14T22:35:42.338Z,99.45
2022-12-14T22:40:45.052Z,100.00
2022-12-14T22:45:49.256Z,100.00
2022-12-14T22:50:52.141Z,100.00
2022-12-14T22:55:57.562Z,99.93
2022-12-14T23:01:01.917Z,100.00
2022-12-14T23:06:04.929Z,100.00
2022-12-14T23:11:25.066Z,100.00
2022-12-14T23:16:50.191Z,100.00
2022-12-14T23:22:10.428Z,100.00
2022-12-14T23:27:30.842Z,99.68
2022-12-14T23:32:52.652Z,100.00
2022-12-14T23:38:13.237Z,100.00
2022-12-14T23:43:35.558Z,100.00
2022-12-14T23:48:57.133Z,100.00
2022-12-14T23:54:17.552Z,100.00
2022-12-14T23:59:37.841Z,100.00
